sensor_id;sensor_type;location;lat;lon;timestamp;P1;durP1;ratioP1;P2;durP2;ratioP2
56997;SDS011;42890;44.244;22.530;2022-08-19T00:00:33;11.02;;;6.20;;
56997;SDS011;42890;44.244;22.530;2022-08-19T00:03:00;9.70;;;6.07;;
56997;SDS011;42890;44.244;22.530;2022-08-19T00:05:26;11.63;;;6.00;;
56997;SDS011;42890;44.244;22.530;2022-08-19T00:07:52;9.38;;;6.88;;
56997;SDS011;42890;44.244;22.530;2022-08-19T00:10:19;8.88;;;6.78;;
56997;SDS011;42890;44.244;22.530;2022-08-19T00:12:45;9.70;;;7.30;;
56997;SDS011;42890;44.244;22.530;2022-08-19T00:15:12;9.68;;;7.40;;
56997;SDS011;42890;44.244;22.530;2022-08-19T00:17:40;11.82;;;7.50;;
56997;SDS011;42890;44.244;22.530;2022-08-19T00:20:08;12.07;;;9.25;;
56997;SDS011;42890;44.244;22.530;2022-08-19T00:22:36;10.57;;;7.75;;
56997;SDS011;42890;44.244;22.530;2022-08-19T00:25:02;12.00;;;8.38;;
56997;SDS011;42890;44.244;22.530;2022-08-19T00:27:28;10.38;;;7.55;;
56997;SDS011;42890;44.244;22.530;2022-08-19T00:29:54;9.65;;;7.05;;
56997;SDS011;42890;44.244;22.530;2022-08-19T00:32:21;7.63;;;6.93;;
56997;SDS011;42890;44.244;22.530;2022-08-19T00:34:47;8.27;;;7.30;;
56997;SDS011;42890;44.244;22.530;2022-08-19T00:37:13;8.23;;;6.68;;
56997;SDS011;42890;44.244;22.530;2022-08-19T00:39:39;8.45;;;7.70;;
56997;SDS011;42890;44.244;22.530;2022-08-19T00:42:05;9.38;;;7.50;;
56997;SDS011;42890;44.244;22.530;2022-08-19T00:44:32;8.20;;;7.50;;
56997;SDS011;42890;44.244;22.530;2022-08-19T00:46:58;8.13;;;7.15;;
56997;SDS011;42890;44.244;22.530;2022-08-19T00:51:55;8.25;;;7.10;;
56997;SDS011;42890;44.244;22.530;2022-08-19T00:54:23;9.50;;;7.50;;
56997;SDS011;42890;44.244;22.530;2022-08-19T00:56:49;7.78;;;6.97;;
56997;SDS011;42890;44.244;22.530;2022-08-19T00:59:16;8.20;;;7.28;;
56997;SDS011;42890;44.244;22.530;2022-08-19T01:01:44;9.13;;;7.30;;
56997;SDS011;42890;44.244;22.530;2022-08-19T01:04:11;12.00;;;7.47;;
56997;SDS011;42890;44.244;22.530;2022-08-19T01:06:38;8.07;;;7.43;;
56997;SDS011;42890;44.244;22.530;2022-08-19T01:09:06;7.95;;;7.25;;
56997;SDS011;42890;44.244;22.530;2022-08-19T01:11:33;9.23;;;7.03;;
56997;SDS011;42890;44.244;22.530;2022-08-19T01:14:00;10.30;;;7.55;;
56997;SDS011;42890;44.244;22.530;2022-08-19T01:16:27;7.65;;;6.80;;
56997;SDS011;42890;44.244;22.530;2022-08-19T01:18:54;8.52;;;7.57;;
56997;SDS011;42890;44.244;22.530;2022-08-19T01:21:31;7.95;;;7.25;;
56997;SDS011;42890;44.244;22.530;2022-08-19T01:23:58;7.70;;;7.00;;
56997;SDS011;42890;44.244;22.530;2022-08-19T01:26:25;9.13;;;6.60;;
56997;SDS011;42890;44.244;22.530;2022-08-19T01:28:52;8.20;;;7.15;;
56997;SDS011;42890;44.244;22.530;2022-08-19T01:31:21;8.30;;;7.45;;
56997;SDS011;42890;44.244;22.530;2022-08-19T01:33:49;10.52;;;7.28;;
56997;SDS011;42890;44.244;22.530;2022-08-19T01:36:20;7.80;;;7.00;;
56997;SDS011;42890;44.244;22.530;2022-08-19T01:38:48;10.50;;;7.57;;
56997;SDS011;42890;44.244;22.530;2022-08-19T01:41:14;8.85;;;7.65;;
56997;SDS011;42890;44.244;22.530;2022-08-19T01:43:41;7.93;;;7.22;;
56997;SDS011;42890;44.244;22.530;2022-08-19T01:46:07;9.35;;;6.78;;
56997;SDS011;42890;44.244;22.530;2022-08-19T01:48:34;9.35;;;7.38;;
56997;SDS011;42890;44.244;22.530;2022-08-19T01:51:01;12.48;;;7.78;;
56997;SDS011;42890;44.244;22.530;2022-08-19T01:53:27;10.82;;;8.55;;
56997;SDS011;42890;44.244;22.530;2022-08-19T01:55:53;13.38;;;8.40;;
56997;SDS011;42890;44.244;22.530;2022-08-19T01:58:21;8.85;;;7.95;;
56997;SDS011;42890;44.244;22.530;2022-08-19T02:00:48;9.07;;;7.90;;
56997;SDS011;42890;44.244;22.530;2022-08-19T02:03:15;18.00;;;7.60;;
56997;SDS011;42890;44.244;22.530;2022-08-19T02:05:41;8.48;;;7.68;;
56997;SDS011;42890;44.244;22.530;2022-08-19T02:08:08;7.47;;;6.78;;
56997;SDS011;42890;44.244;22.530;2022-08-19T02:10:37;7.93;;;7.15;;
56997;SDS011;42890;44.244;22.530;2022-08-19T02:13:04;11.38;;;6.78;;
56997;SDS011;42890;44.244;22.530;2022-08-19T02:15:30;9.05;;;6.50;;
56997;SDS011;42890;44.244;22.530;2022-08-19T02:17:57;7.85;;;7.07;;
56997;SDS011;42890;44.244;22.530;2022-08-19T02:20:23;17.90;;;16.15;;
56997;SDS011;42890;44.244;22.530;2022-08-19T02:22:49;25.38;;;22.95;;
56997;SDS011;42890;44.244;22.530;2022-08-19T02:25:15;12.05;;;11.07;;
56997;SDS011;42890;44.244;22.530;2022-08-19T02:27:42;12.60;;;11.40;;
56997;SDS011;42890;44.244;22.530;2022-08-19T02:30:11;15.68;;;14.20;;
56997;SDS011;42890;44.244;22.530;2022-08-19T02:32:38;17.08;;;15.50;;
56997;SDS011;42890;44.244;22.530;2022-08-19T02:35:04;17.92;;;15.48;;
56997;SDS011;42890;44.244;22.530;2022-08-19T02:37:30;19.17;;;17.40;;
56997;SDS011;42890;44.244;22.530;2022-08-19T02:40:15;15.52;;;14.13;;
56997;SDS011;42890;44.244;22.530;2022-08-19T02:42:42;14.70;;;13.48;;
56997;SDS011;42890;44.244;22.530;2022-08-19T02:45:10;17.30;;;12.00;;
56997;SDS011;42890;44.244;22.530;2022-08-19T02:47:37;13.38;;;9.80;;
56997;SDS011;42890;44.244;22.530;2022-08-19T02:50:04;10.90;;;8.50;;
56997;SDS011;42890;44.244;22.530;2022-08-19T02:52:31;11.77;;;7.47;;
56997;SDS011;42890;44.244;22.530;2022-08-19T02:54:57;8.10;;;7.35;;
56997;SDS011;42890;44.244;22.530;2022-08-19T02:57:24;10.48;;;7.68;;
56997;SDS011;42890;44.244;22.530;2022-08-19T02:59:50;9.30;;;7.80;;
56997;SDS011;42890;44.244;22.530;2022-08-19T03:02:16;10.00;;;9.10;;
56997;SDS011;42890;44.244;22.530;2022-08-19T03:04:42;10.32;;;8.70;;
56997;SDS011;42890;44.244;22.530;2022-08-19T03:07:08;9.07;;;8.15;;
56997;SDS011;42890;44.244;22.530;2022-08-19T03:09:36;10.90;;;7.97;;
56997;SDS011;42890;44.244;22.530;2022-08-19T03:12:03;13.43;;;9.18;;
56997;SDS011;42890;44.244;22.530;2022-08-19T03:14:30;10.52;;;9.52;;
56997;SDS011;42890;44.244;22.530;2022-08-19T03:16:57;12.05;;;10.98;;
56997;SDS011;42890;44.244;22.530;2022-08-19T03:19:23;13.00;;;10.20;;
56997;SDS011;42890;44.244;22.530;2022-08-19T03:21:49;11.65;;;9.23;;
56997;SDS011;42890;44.244;22.530;2022-08-19T03:24:16;11.85;;;9.23;;
56997;SDS011;42890;44.244;22.530;2022-08-19T03:26:47;15.82;;;9.45;;
56997;SDS011;42890;44.244;22.530;2022-08-19T03:29:14;13.27;;;8.63;;
56997;SDS011;42890;44.244;22.530;2022-08-19T03:31:41;10.25;;;8.75;;
56997;SDS011;42890;44.244;22.530;2022-08-19T03:34:08;10.73;;;9.23;;
56997;SDS011;42890;44.244;22.530;2022-08-19T03:36:36;9.75;;;8.75;;
56997;SDS011;42890;44.244;22.530;2022-08-19T03:39:03;41.22;;;29.35;;
56997;SDS011;42890;44.244;22.530;2022-08-19T03:41:30;37.72;;;33.72;;
56997;SDS011;42890;44.244;22.530;2022-08-19T03:43:57;33.65;;;30.00;;
56997;SDS011;42890;44.244;22.530;2022-08-19T03:46:28;14.60;;;12.38;;
56997;SDS011;42890;44.244;22.530;2022-08-19T03:48:55;15.73;;;14.23;;
56997;SDS011;42890;44.244;22.530;2022-08-19T03:51:23;47.08;;;39.83;;
56997;SDS011;42890;44.244;22.530;2022-08-19T03:53:50;42.33;;;34.83;;
56997;SDS011;42890;44.244;22.530;2022-08-19T03:56:16;13.10;;;11.70;;
56997;SDS011;42890;44.244;22.530;2022-08-19T03:58:43;15.73;;;12.45;;
56997;SDS011;42890;44.244;22.530;2022-08-19T04:01:10;25.30;;;21.30;;
56997;SDS011;42890;44.244;22.530;2022-08-19T04:03:37;35.47;;;31.48;;
56997;SDS011;42890;44.244;22.530;2022-08-19T04:06:13;15.02;;;13.25;;
56997;SDS011;42890;44.244;22.530;2022-08-19T04:08:40;11.93;;;10.82;;
56997;SDS011;42890;44.244;22.530;2022-08-19T04:11:09;15.80;;;14.10;;
56997;SDS011;42890;44.244;22.530;2022-08-19T04:13:36;17.90;;;11.88;;
56997;SDS011;42890;44.244;22.530;2022-08-19T04:16:03;12.68;;;10.10;;
56997;SDS011;42890;44.244;22.530;2022-08-19T04:18:29;11.70;;;9.57;;
56997;SDS011;42890;44.244;22.530;2022-08-19T04:20:56;10.88;;;8.25;;
56997;SDS011;42890;44.244;22.530;2022-08-19T04:23:22;10.00;;;8.95;;
56997;SDS011;42890;44.244;22.530;2022-08-19T04:25:48;20.65;;;8.45;;
56997;SDS011;42890;44.244;22.530;2022-08-19T04:28:15;9.68;;;7.75;;
56997;SDS011;42890;44.244;22.530;2022-08-19T04:30:42;9.52;;;8.63;;
56997;SDS011;42890;44.244;22.530;2022-08-19T04:33:09;9.32;;;8.40;;
56997;SDS011;42890;44.244;22.530;2022-08-19T04:35:36;11.65;;;9.05;;
56997;SDS011;42890;44.244;22.530;2022-08-19T04:38:03;12.93;;;9.13;;
56997;SDS011;42890;44.244;22.530;2022-08-19T04:40:29;9.88;;;8.90;;
56997;SDS011;42890;44.244;22.530;2022-08-19T04:43:14;10.30;;;8.57;;
56997;SDS011;42890;44.244;22.530;2022-08-19T04:45:41;9.68;;;8.25;;
56997;SDS011;42890;44.244;22.530;2022-08-19T04:48:08;12.52;;;8.70;;
56997;SDS011;42890;44.244;22.530;2022-08-19T04:50:35;9.40;;;8.40;;
56997;SDS011;42890;44.244;22.530;2022-08-19T04:53:01;8.65;;;7.75;;
56997;SDS011;42890;44.244;22.530;2022-08-19T04:55:28;11.70;;;8.27;;
56997;SDS011;42890;44.244;22.530;2022-08-19T04:57:54;9.82;;;7.68;;
56997;SDS011;42890;44.244;22.530;2022-08-19T05:00:20;12.82;;;7.97;;
56997;SDS011;42890;44.244;22.530;2022-08-19T05:02:47;9.05;;;8.15;;
56997;SDS011;42890;44.244;22.530;2022-08-19T05:05:14;8.23;;;7.15;;
56997;SDS011;42890;44.244;22.530;2022-08-19T05:07:40;11.63;;;8.00;;
56997;SDS011;42890;44.244;22.530;2022-08-19T05:10:06;12.10;;;7.80;;
56997;SDS011;42890;44.244;22.530;2022-08-19T05:12:32;7.82;;;7.13;;
56997;SDS011;42890;44.244;22.530;2022-08-19T05:14:59;14.43;;;8.40;;
56997;SDS011;42890;44.244;22.530;2022-08-19T05:17:26;10.00;;;7.70;;
56997;SDS011;42890;44.244;22.530;2022-08-19T05:19:52;12.65;;;7.28;;
56997;SDS011;42890;44.244;22.530;2022-08-19T05:22:37;9.57;;;7.32;;
56997;SDS011;42890;44.244;22.530;2022-08-19T05:25:07;10.20;;;7.63;;
56997;SDS011;42890;44.244;22.530;2022-08-19T05:27:34;17.40;;;7.90;;
56997;SDS011;42890;44.244;22.530;2022-08-19T05:30:00;9.75;;;7.47;;
56997;SDS011;42890;44.244;22.530;2022-08-19T05:32:26;9.35;;;7.70;;
56997;SDS011;42890;44.244;22.530;2022-08-19T05:34:53;11.25;;;7.28;;
56997;SDS011;42890;44.244;22.530;2022-08-19T05:37:19;8.85;;;7.50;;
56997;SDS011;42890;44.244;22.530;2022-08-19T05:39:46;11.85;;;7.85;;
56997;SDS011;42890;44.244;22.530;2022-08-19T05:42:14;11.98;;;7.97;;
56997;SDS011;42890;44.244;22.530;2022-08-19T05:44:41;8.68;;;7.63;;
56997;SDS011;42890;44.244;22.530;2022-08-19T05:47:09;10.85;;;8.13;;
56997;SDS011;42890;44.244;22.530;2022-08-19T05:49:36;11.13;;;7.97;;
56997;SDS011;42890;44.244;22.530;2022-08-19T05:52:06;11.38;;;8.50;;
56997;SDS011;42890;44.244;22.530;2022-08-19T05:54:33;14.13;;;8.48;;
56997;SDS011;42890;44.244;22.530;2022-08-19T05:57:01;13.35;;;9.18;;
56997;SDS011;42890;44.244;22.530;2022-08-19T05:59:27;15.38;;;9.73;;
56997;SDS011;42890;44.244;22.530;2022-08-19T06:01:56;13.10;;;9.70;;
56997;SDS011;42890;44.244;22.530;2022-08-19T06:04:22;16.83;;;9.50;;
56997;SDS011;42890;44.244;22.530;2022-08-19T06:06:49;13.52;;;9.43;;
56997;SDS011;42890;44.244;22.530;2022-08-19T06:09:16;11.48;;;9.77;;
56997;SDS011;42890;44.244;22.530;2022-08-19T06:11:46;11.13;;;9.23;;
56997;SDS011;42890;44.244;22.530;2022-08-19T06:14:14;10.43;;;9.27;;
56997;SDS011;42890;44.244;22.530;2022-08-19T06:16:41;17.70;;;8.82;;
56997;SDS011;42890;44.244;22.530;2022-08-19T06:19:09;12.20;;;9.05;;
56997;SDS011;42890;44.244;22.530;2022-08-19T06:21:36;12.27;;;8.93;;
56997;SDS011;42890;44.244;22.530;2022-08-19T06:24:03;15.38;;;9.50;;
56997;SDS011;42890;44.244;22.530;2022-08-19T06:26:30;15.73;;;9.80;;
56997;SDS011;42890;44.244;22.530;2022-08-19T06:28:56;13.90;;;9.23;;
56997;SDS011;42890;44.244;22.530;2022-08-19T06:31:24;14.15;;;9.73;;
56997;SDS011;42890;44.244;22.530;2022-08-19T06:33:50;10.20;;;9.20;;
56997;SDS011;42890;44.244;22.530;2022-08-19T06:38:43;13.20;;;8.73;;
56997;SDS011;42890;44.244;22.530;2022-08-19T06:41:09;9.88;;;8.88;;
56997;SDS011;42890;44.244;22.530;2022-08-19T06:43:35;13.70;;;9.63;;
56997;SDS011;42890;44.244;22.530;2022-08-19T06:46:01;10.00;;;9.10;;
56997;SDS011;42890;44.244;22.530;2022-08-19T06:48:29;12.77;;;9.20;;
56997;SDS011;42890;44.244;22.530;2022-08-19T06:50:55;13.85;;;9.27;;
56997;SDS011;42890;44.244;22.530;2022-08-19T06:53:21;17.83;;;9.70;;
56997;SDS011;42890;44.244;22.530;2022-08-19T06:55:47;11.95;;;9.20;;
56997;SDS011;42890;44.244;22.530;2022-08-19T06:58:25;14.98;;;9.55;;
56997;SDS011;42890;44.244;22.530;2022-08-19T07:00:51;11.35;;;9.25;;
56997;SDS011;42890;44.244;22.530;2022-08-19T07:03:17;11.18;;;8.98;;
56997;SDS011;42890;44.244;22.530;2022-08-19T07:05:43;17.15;;;9.70;;
56997;SDS011;42890;44.244;22.530;2022-08-19T07:08:09;11.15;;;8.52;;
56997;SDS011;42890;44.244;22.530;2022-08-19T07:10:36;9.75;;;8.82;;
56997;SDS011;42890;44.244;22.530;2022-08-19T07:13:02;10.40;;;9.10;;
56997;SDS011;42890;44.244;22.530;2022-08-19T07:15:28;10.50;;;8.70;;
56997;SDS011;42890;44.244;22.530;2022-08-19T07:17:55;13.25;;;9.20;;
56997;SDS011;42890;44.244;22.530;2022-08-19T07:20:22;11.90;;;9.52;;
56997;SDS011;42890;44.244;22.530;2022-08-19T07:22:48;11.77;;;9.77;;
56997;SDS011;42890;44.244;22.530;2022-08-19T07:25:15;11.18;;;9.65;;
56997;SDS011;42890;44.244;22.530;2022-08-19T07:27:42;13.38;;;9.38;;
56997;SDS011;42890;44.244;22.530;2022-08-19T07:30:09;15.60;;;9.30;;
56997;SDS011;42890;44.244;22.530;2022-08-19T07:32:36;10.10;;;9.05;;
56997;SDS011;42890;44.244;22.530;2022-08-19T07:35:03;10.07;;;8.93;;
56997;SDS011;42890;44.244;22.530;2022-08-19T07:37:30;12.02;;;9.32;;
56997;SDS011;42890;44.244;22.530;2022-08-19T07:39:56;10.93;;;9.85;;
56997;SDS011;42890;44.244;22.530;2022-08-19T07:42:22;12.70;;;9.02;;
56997;SDS011;42890;44.244;22.530;2022-08-19T07:44:48;10.43;;;9.38;;
56997;SDS011;42890;44.244;22.530;2022-08-19T07:47:14;12.70;;;9.05;;
56997;SDS011;42890;44.244;22.530;2022-08-19T07:49:42;11.60;;;9.07;;
56997;SDS011;42890;44.244;22.530;2022-08-19T07:52:08;14.82;;;9.77;;
56997;SDS011;42890;44.244;22.530;2022-08-19T07:54:36;11.18;;;9.13;;
56997;SDS011;42890;44.244;22.530;2022-08-19T07:57:02;12.38;;;9.35;;
56997;SDS011;42890;44.244;22.530;2022-08-19T07:59:28;17.65;;;9.48;;
56997;SDS011;42890;44.244;22.530;2022-08-19T08:01:55;15.57;;;9.65;;
56997;SDS011;42890;44.244;22.530;2022-08-19T08:04:22;12.32;;;9.70;;
56997;SDS011;42890;44.244;22.530;2022-08-19T08:07:07;14.55;;;9.13;;
56997;SDS011;42890;44.244;22.530;2022-08-19T08:09:52;12.70;;;9.45;;
56997;SDS011;42890;44.244;22.530;2022-08-19T08:12:26;12.30;;;9.80;;
56997;SDS011;42890;44.244;22.530;2022-08-19T08:14:57;11.93;;;9.77;;
56997;SDS011;42890;44.244;22.530;2022-08-19T08:17:25;14.60;;;9.35;;
56997;SDS011;42890;44.244;22.530;2022-08-19T08:19:52;11.02;;;9.60;;
56997;SDS011;42890;44.244;22.530;2022-08-19T08:22:19;11.88;;;9.48;;
56997;SDS011;42890;44.244;22.530;2022-08-19T08:25:10;15.13;;;9.73;;
56997;SDS011;42890;44.244;22.530;2022-08-19T08:27:39;14.05;;;9.75;;
56997;SDS011;42890;44.244;22.530;2022-08-19T08:30:09;11.40;;;9.40;;
56997;SDS011;42890;44.244;22.530;2022-08-19T08:32:36;11.50;;;9.80;;
56997;SDS011;42890;44.244;22.530;2022-08-19T08:35:07;14.55;;;10.45;;
56997;SDS011;42890;44.244;22.530;2022-08-19T08:37:33;12.13;;;9.43;;
56997;SDS011;42890;44.244;22.530;2022-08-19T08:40:03;14.85;;;9.55;;
56997;SDS011;42890;44.244;22.530;2022-08-19T08:42:32;10.30;;;9.00;;
56997;SDS011;42890;44.244;22.530;2022-08-19T08:47:29;12.75;;;8.80;;
56997;SDS011;42890;44.244;22.530;2022-08-19T08:50:08;13.50;;;9.57;;
56997;SDS011;42890;44.244;22.530;2022-08-19T08:52:37;16.15;;;9.45;;
56997;SDS011;42890;44.244;22.530;2022-08-19T08:55:11;14.63;;;9.40;;
56997;SDS011;42890;44.244;22.530;2022-08-19T08:57:39;12.60;;;10.00;;
56997;SDS011;42890;44.244;22.530;2022-08-19T09:00:09;14.50;;;10.05;;
56997;SDS011;42890;44.244;22.530;2022-08-19T09:02:35;11.98;;;9.32;;
56997;SDS011;42890;44.244;22.530;2022-08-19T09:05:02;21.75;;;8.90;;
56997;SDS011;42890;44.244;22.530;2022-08-19T09:10:22;16.75;;;9.57;;
56997;SDS011;42890;44.244;22.530;2022-08-19T09:13:36;11.13;;;8.98;;
56997;SDS011;42890;44.244;22.530;2022-08-19T09:15:43;12.88;;;9.38;;
56997;SDS011;42890;44.244;22.530;2022-08-19T09:18:10;17.45;;;9.52;;
56997;SDS011;42890;44.244;22.530;2022-08-19T09:20:36;18.08;;;9.00;;
56997;SDS011;42890;44.244;22.530;2022-08-19T09:23:03;19.10;;;9.48;;
56997;SDS011;42890;44.244;22.530;2022-08-19T09:25:29;14.30;;;9.82;;
56997;SDS011;42890;44.244;22.530;2022-08-19T09:27:56;13.55;;;9.05;;
56997;SDS011;42890;44.244;22.530;2022-08-19T09:30:28;13.52;;;9.02;;
56997;SDS011;42890;44.244;22.530;2022-08-19T09:32:54;14.13;;;9.52;;
56997;SDS011;42890;44.244;22.530;2022-08-19T09:35:22;12.15;;;8.75;;
56997;SDS011;42890;44.244;22.530;2022-08-19T09:37:48;13.25;;;9.07;;
56997;SDS011;42890;44.244;22.530;2022-08-19T09:40:15;18.02;;;9.85;;
56997;SDS011;42890;44.244;22.530;2022-08-19T09:42:42;15.02;;;9.48;;
56997;SDS011;42890;44.244;22.530;2022-08-19T09:45:12;15.02;;;9.10;;
56997;SDS011;42890;44.244;22.530;2022-08-19T09:47:38;13.00;;;9.25;;
56997;SDS011;42890;44.244;22.530;2022-08-19T09:50:05;11.48;;;8.48;;
56997;SDS011;42890;44.244;22.530;2022-08-19T09:52:32;12.32;;;8.20;;
56997;SDS011;42890;44.244;22.530;2022-08-19T09:54:58;12.98;;;8.52;;
56997;SDS011;42890;44.244;22.530;2022-08-19T09:57:24;12.52;;;9.50;;
56997;SDS011;42890;44.244;22.530;2022-08-19T09:59:50;20.98;;;8.75;;
56997;SDS011;42890;44.244;22.530;2022-08-19T10:02:17;18.48;;;9.63;;
56997;SDS011;42890;44.244;22.530;2022-08-19T10:04:43;13.85;;;8.38;;
56997;SDS011;42890;44.244;22.530;2022-08-19T10:07:29;10.80;;;8.23;;
56997;SDS011;42890;44.244;22.530;2022-08-19T10:09:55;14.27;;;8.07;;
56997;SDS011;42890;44.244;22.530;2022-08-19T10:12:21;9.45;;;8.05;;
56997;SDS011;42890;44.244;22.530;2022-08-19T10:14:47;11.57;;;7.97;;
56997;SDS011;42890;44.244;22.530;2022-08-19T10:17:16;7.95;;;7.22;;
56997;SDS011;42890;44.244;22.530;2022-08-19T10:19:42;12.45;;;8.23;;
56997;SDS011;42890;44.244;22.530;2022-08-19T10:22:08;11.02;;;7.65;;
56997;SDS011;42890;44.244;22.530;2022-08-19T10:24:39;13.13;;;7.63;;
56997;SDS011;42890;44.244;22.530;2022-08-19T10:27:06;14.52;;;7.78;;
56997;SDS011;42890;44.244;22.530;2022-08-19T10:29:32;7.63;;;6.72;;
56997;SDS011;42890;44.244;22.530;2022-08-19T10:32:03;14.55;;;7.78;;
56997;SDS011;42890;44.244;22.530;2022-08-19T10:34:30;11.03;;;7.27;;
56997;SDS011;42890;44.244;22.530;2022-08-19T10:36:57;9.55;;;6.75;;
56997;SDS011;42890;44.244;22.530;2022-08-19T10:39:25;13.48;;;6.82;;
56997;SDS011;42890;44.244;22.530;2022-08-19T10:41:54;9.98;;;7.10;;
56997;SDS011;42890;44.244;22.530;2022-08-19T10:44:21;9.15;;;7.00;;
56997;SDS011;42890;44.244;22.530;2022-08-19T10:46:50;9.40;;;6.38;;
56997;SDS011;42890;44.244;22.530;2022-08-19T10:49:17;8.13;;;6.55;;
56997;SDS011;42890;44.244;22.530;2022-08-19T10:51:44;8.95;;;6.50;;
56997;SDS011;42890;44.244;22.530;2022-08-19T10:54:29;11.77;;;6.45;;
56997;SDS011;42890;44.244;22.530;2022-08-19T10:57:14;14.00;;;6.57;;
56997;SDS011;42890;44.244;22.530;2022-08-19T10:59:40;11.18;;;6.45;;
56997;SDS011;42890;44.244;22.530;2022-08-19T11:02:08;10.70;;;6.00;;
56997;SDS011;42890;44.244;22.530;2022-08-19T11:04:35;10.45;;;5.97;;
56997;SDS011;42890;44.244;22.530;2022-08-19T11:07:02;12.30;;;6.15;;
56997;SDS011;42890;44.244;22.530;2022-08-19T11:09:28;10.35;;;5.70;;
56997;SDS011;42890;44.244;22.530;2022-08-19T11:11:55;16.67;;;6.25;;
56997;SDS011;42890;44.244;22.530;2022-08-19T11:14:21;8.75;;;6.03;;
56997;SDS011;42890;44.244;22.530;2022-08-19T11:16:49;8.98;;;5.85;;
56997;SDS011;42890;44.244;22.530;2022-08-19T11:19:15;10.10;;;6.05;;
56997;SDS011;42890;44.244;22.530;2022-08-19T11:21:46;10.70;;;5.90;;
56997;SDS011;42890;44.244;22.530;2022-08-19T11:24:14;7.40;;;6.22;;
56997;SDS011;42890;44.244;22.530;2022-08-19T11:26:41;9.75;;;5.78;;
56997;SDS011;42890;44.244;22.530;2022-08-19T11:29:08;11.18;;;6.07;;
56997;SDS011;42890;44.244;22.530;2022-08-19T11:31:39;10.50;;;5.95;;
56997;SDS011;42890;44.244;22.530;2022-08-19T11:34:06;12.30;;;5.82;;
56997;SDS011;42890;44.244;22.530;2022-08-19T11:36:33;15.50;;;6.70;;
56997;SDS011;42890;44.244;22.530;2022-08-19T11:38:59;8.73;;;5.95;;
56997;SDS011;42890;44.244;22.530;2022-08-19T11:41:26;11.13;;;6.57;;
56997;SDS011;42890;44.244;22.530;2022-08-19T11:43:53;9.52;;;6.20;;
56997;SDS011;42890;44.244;22.530;2022-08-19T11:46:20;10.23;;;6.30;;
56997;SDS011;42890;44.244;22.530;2022-08-19T11:48:47;9.15;;;6.00;;
56997;SDS011;42890;44.244;22.530;2022-08-19T11:51:16;10.90;;;5.80;;
56997;SDS011;42890;44.244;22.530;2022-08-19T11:53:43;8.50;;;6.03;;
56997;SDS011;42890;44.244;22.530;2022-08-19T11:56:10;11.63;;;6.28;;
56997;SDS011;42890;44.244;22.530;2022-08-19T11:58:37;6.30;;;5.60;;
56997;SDS011;42890;44.244;22.530;2022-08-19T12:01:07;9.32;;;5.63;;
56997;SDS011;42890;44.244;22.530;2022-08-19T12:03:33;11.05;;;6.22;;
56997;SDS011;42890;44.244;22.530;2022-08-19T12:06:07;11.70;;;5.45;;
56997;SDS011;42890;44.244;22.530;2022-08-19T12:08:33;10.15;;;5.55;;
56997;SDS011;42890;44.244;22.530;2022-08-19T12:10:59;7.10;;;5.15;;
56997;SDS011;42890;44.244;22.530;2022-08-19T12:13:29;8.02;;;5.15;;
56997;SDS011;42890;44.244;22.530;2022-08-19T12:15:55;9.70;;;5.28;;
56997;SDS011;42890;44.244;22.530;2022-08-19T12:18:22;9.00;;;5.30;;
56997;SDS011;42890;44.244;22.530;2022-08-19T12:20:50;6.70;;;5.22;;
56997;SDS011;42890;44.244;22.530;2022-08-19T12:23:42;9.77;;;5.07;;
56997;SDS011;42890;44.244;22.530;2022-08-19T12:26:12;9.55;;;4.82;;
56997;SDS011;42890;44.244;22.530;2022-08-19T12:28:38;10.70;;;4.85;;
56997;SDS011;42890;44.244;22.530;2022-08-19T12:31:05;9.43;;;4.68;;
56997;SDS011;42890;44.244;22.530;2022-08-19T12:33:33;7.97;;;4.72;;
56997;SDS011;42890;44.244;22.530;2022-08-19T12:36:05;7.60;;;5.43;;
56997;SDS011;42890;44.244;22.530;2022-08-19T12:38:32;10.48;;;4.55;;
56997;SDS011;42890;44.244;22.530;2022-08-19T12:40:59;9.82;;;5.30;;
56997;SDS011;42890;44.244;22.530;2022-08-19T12:43:26;11.60;;;5.30;;
56997;SDS011;42890;44.244;22.530;2022-08-19T12:45:54;8.90;;;5.10;;
56997;SDS011;42890;44.244;22.530;2022-08-19T12:48:20;11.20;;;5.18;;
56997;SDS011;42890;44.244;22.530;2022-08-19T12:50:46;12.55;;;5.13;;
56997;SDS011;42890;44.244;22.530;2022-08-19T12:53:13;12.13;;;4.95;;
56997;SDS011;42890;44.244;22.530;2022-08-19T12:55:39;8.13;;;4.55;;
56997;SDS011;42890;44.244;22.530;2022-08-19T12:58:05;9.25;;;4.28;;
56997;SDS011;42890;44.244;22.530;2022-08-19T13:00:33;11.98;;;4.68;;
56997;SDS011;42890;44.244;22.530;2022-08-19T13:02:59;9.32;;;4.15;;
56997;SDS011;42890;44.244;22.530;2022-08-19T13:05:26;9.85;;;4.05;;
56997;SDS011;42890;44.244;22.530;2022-08-19T13:07:55;7.15;;;4.65;;
56997;SDS011;42890;44.244;22.530;2022-08-19T13:10:21;11.60;;;4.20;;
56997;SDS011;42890;44.244;22.530;2022-08-19T13:12:48;9.98;;;4.03;;
56997;SDS011;42890;44.244;22.530;2022-08-19T13:15:16;10.40;;;4.22;;
56997;SDS011;42890;44.244;22.530;2022-08-19T13:17:46;10.03;;;4.37;;
56997;SDS011;42890;44.244;22.530;2022-08-19T13:20:14;5.32;;;4.28;;
56997;SDS011;42890;44.244;22.530;2022-08-19T13:22:41;10.27;;;4.22;;
56997;SDS011;42890;44.244;22.530;2022-08-19T13:25:07;7.63;;;4.57;;
56997;SDS011;42890;44.244;22.530;2022-08-19T13:27:34;6.95;;;4.53;;
56997;SDS011;42890;44.244;22.530;2022-08-19T13:30:01;8.50;;;4.30;;
56997;SDS011;42890;44.244;22.530;2022-08-19T13:32:46;6.78;;;4.53;;
56997;SDS011;42890;44.244;22.530;2022-08-19T13:35:31;8.52;;;4.40;;
56997;SDS011;42890;44.244;22.530;2022-08-19T13:37:57;12.00;;;4.30;;
56997;SDS011;42890;44.244;22.530;2022-08-19T13:40:24;5.72;;;4.25;;
56997;SDS011;42890;44.244;22.530;2022-08-19T13:42:52;12.45;;;4.22;;
56997;SDS011;42890;44.244;22.530;2022-08-19T13:45:20;12.13;;;4.07;;
56997;SDS011;42890;44.244;22.530;2022-08-19T13:47:47;11.60;;;4.28;;
56997;SDS011;42890;44.244;22.530;2022-08-19T13:50:16;8.65;;;4.10;;
56997;SDS011;42890;44.244;22.530;2022-08-19T13:52:43;6.75;;;4.10;;
56997;SDS011;42890;44.244;22.530;2022-08-19T13:55:10;8.63;;;3.65;;
56997;SDS011;42890;44.244;22.530;2022-08-19T13:57:36;5.82;;;3.50;;
56997;SDS011;42890;44.244;22.530;2022-08-19T14:00:08;5.38;;;3.33;;
56997;SDS011;42890;44.244;22.530;2022-08-19T14:02:38;5.75;;;3.33;;
56997;SDS011;42890;44.244;22.530;2022-08-19T14:05:06;5.60;;;3.67;;
56997;SDS011;42890;44.244;22.530;2022-08-19T14:07:32;7.88;;;3.47;;
56997;SDS011;42890;44.244;22.530;2022-08-19T14:09:58;13.23;;;4.30;;
56997;SDS011;42890;44.244;22.530;2022-08-19T14:12:25;7.18;;;3.25;;
56997;SDS011;42890;44.244;22.530;2022-08-19T14:14:51;5.65;;;3.60;;
56997;SDS011;42890;44.244;22.530;2022-08-19T14:17:17;8.90;;;3.53;;
56997;SDS011;42890;44.244;22.530;2022-08-19T14:19:43;9.20;;;3.85;;
56997;SDS011;42890;44.244;22.530;2022-08-19T14:22:09;11.73;;;4.43;;
56997;SDS011;42890;44.244;22.530;2022-08-19T14:24:39;11.93;;;3.92;;
56997;SDS011;42890;44.244;22.530;2022-08-19T14:27:05;8.85;;;3.58;;
56997;SDS011;42890;44.244;22.530;2022-08-19T14:29:32;6.47;;;3.70;;
56997;SDS011;42890;44.244;22.530;2022-08-19T14:31:58;9.32;;;3.38;;
56997;SDS011;42890;44.244;22.530;2022-08-19T14:34:25;7.93;;;3.63;;
56997;SDS011;42890;44.244;22.530;2022-08-19T14:36:51;9.77;;;3.40;;
56997;SDS011;42890;44.244;22.530;2022-08-19T14:39:18;12.50;;;3.65;;